createdAt,value
2023-05-22T00:01:59.375Z,7.50
2023-05-22T00:04:30.271Z,8.50
2023-05-22T00:06:57.669Z,8.50
2023-05-22T00:09:25.991Z,7.40
2023-05-22T00:11:53.646Z,8.10
2023-05-22T00:14:20.839Z,8.13
2023-05-22T00:16:48.580Z,7.30
2023-05-22T00:19:17.371Z,7.32
2023-05-22T00:21:44.853Z,8.32
2023-05-22T00:24:11.954Z,8.20
2023-05-22T00:26:39.034Z,8.13
2023-05-22T00:29:06.246Z,7.40
2023-05-22T00:31:33.567Z,8.20
2023-05-22T00:34:00.964Z,7.93
2023-05-22T00:36:28.264Z,7.85
2023-05-22T00:38:55.283Z,7.55
2023-05-22T00:41:23.172Z,6.93
2023-05-22T00:43:51.424Z,7.20
2023-05-22T00:46:21.752Z,6.95
2023-05-22T00:48:49.465Z,6.78
2023-05-22T00:51:16.644Z,7.30
2023-05-22T00:53:46.955Z,7.35
2023-05-22T00:56:15.336Z,6.78
2023-05-22T00:58:43.046Z,6.45
2023-05-22T01:01:11.602Z,6.13
2023-05-22T01:03:45.252Z,5.80
2023-05-22T01:06:18.371Z,6.78
2023-05-22T01:08:45.753Z,5.95
2023-05-22T01:11:22.898Z,6.50
2023-05-22T01:14:20.295Z,6.07
2023-05-22T01:17:10.528Z,6.10
2023-05-22T01:19:47.834Z,6.00
2023-05-22T01:22:47.800Z,5.80
2023-05-22T01:25:36.018Z,6.00
2023-05-22T01:28:12.105Z,5.43
2023-05-22T01:30:44.848Z,5.38
2023-05-22T01:33:15.298Z,5.45
2023-05-22T01:35:46.969Z,5.28
2023-05-22T01:38:15.894Z,6.03
2023-05-22T01:40:45.970Z,5.93
2023-05-22T01:43:16.779Z,6.50
2023-05-22T01:45:46.320Z,7.93
2023-05-22T01:48:13.523Z,6.07
2023-05-22T01:50:41.468Z,6.05
2023-05-22T01:53:33.862Z,6.20
2023-05-22T01:56:05.513Z,5.93
2023-05-22T01:58:42.622Z,5.85
2023-05-22T02:01:12.468Z,5.88
2023-05-22T02:03:41.197Z,5.60
2023-05-22T02:06:13.666Z,7.18
2023-05-22T02:08:43.229Z,7.13
2023-05-22T02:11:12.773Z,7.28
2023-05-22T02:13:40.416Z,6.85
2023-05-22T02:16:07.834Z,6.40
2023-05-22T02:18:35.135Z,6.22
2023-05-22T02:21:03.534Z,6.20
2023-05-22T02:23:32.341Z,8.02
2023-05-22T02:25:59.695Z,7.38
2023-05-22T02:28:27.707Z,7.93
2023-05-22T02:30:54.928Z,7.95
2023-05-22T02:33:22.263Z,7.63
2023-05-22T02:35:50.661Z,7.50
2023-05-22T02:38:17.873Z,7.50
2023-05-22T02:40:45.279Z,7.35
2023-05-22T02:43:12.375Z,7.07
2023-05-22T02:45:39.729Z,6.30
2023-05-22T02:48:06.870Z,6.95
2023-05-22T02:50:34.104Z,6.90
2023-05-22T02:53:01.147Z,6.32
2023-05-22T02:55:28.175Z,6.70
2023-05-22T02:57:55.453Z,6.20
2023-05-22T03:00:23.141Z,5.93
2023-05-22T03:02:50.695Z,6.55
2023-05-22T03:05:18.368Z,5.97
2023-05-22T03:07:48.358Z,6.40
2023-05-22T03:10:16.301Z,6.75
2023-05-22T03:12:43.345Z,7.90
2023-05-22T03:15:11.742Z,6.50
2023-05-22T03:17:40.941Z,6.57
2023-05-22T03:20:09.035Z,7.72
2023-05-22T03:22:36.538Z,7.40
2023-05-22T03:25:06.546Z,7.20
2023-05-22T03:27:33.889Z,7.63
2023-05-22T03:30:02.479Z,8.15
2023-05-22T03:32:31.288Z,6.95
2023-05-22T03:34:59.181Z,7.47
2023-05-22T03:37:26.386Z,7.63
2023-05-22T03:39:53.470Z,7.47
2023-05-22T03:42:30.113Z,8.13
2023-05-22T03:44:57.797Z,9.20
2023-05-22T03:47:26.064Z,8.85
2023-05-22T03:49:53.371Z,9.68
2023-05-22T03:52:22.877Z,8.68
2023-05-22T03:54:50.101Z,8.70
2023-05-22T03:57:20.138Z,7.32
2023-05-22T03:59:47.451Z,6.60
2023-05-22T04:02:17.071Z,7.57
2023-05-22T04:04:46.454Z,7.50
2023-05-22T04:07:14.056Z,7.57
2023-05-22T04:09:41.662Z,7.13
2023-05-22T04:12:09.196Z,7.75
2023-05-22T04:14:36.257Z,7.80
2023-05-22T04:17:03.465Z,7.40
2023-05-22T04:19:30.942Z,7.25
2023-05-22T04:21:59.178Z,7.80
2023-05-22T04:24:27.899Z,7.72
2023-05-22T04:26:55.275Z,6.45
2023-05-22T04:29:23.009Z,6.78
2023-05-22T04:31:50.215Z,7.93
2023-05-22T04:34:18.598Z,6.53
2023-05-22T04:36:46.717Z,6.95
2023-05-22T04:39:15.202Z,7.53
2023-05-22T04:41:42.460Z,7.13
2023-05-22T04:44:09.702Z,7.20
2023-05-22T04:46:36.865Z,8.57
2023-05-22T04:49:04.860Z,9.90
2023-05-22T04:51:33.222Z,8.45
2023-05-22T04:54:00.472Z,8.00
2023-05-22T04:56:36.308Z,9.60
2023-05-22T04:59:05.729Z,9.73
2023-05-22T05:01:35.263Z,10.18
2023-05-22T05:04:04.005Z,10.75
2023-05-22T05:06:31.179Z,11.10
2023-05-22T05:08:58.329Z,11.10
2023-05-22T05:11:26.234Z,10.98
2023-05-22T05:13:53.406Z,9.48
2023-05-22T05:16:20.794Z,8.07
2023-05-22T05:18:48.032Z,9.13
2023-05-22T05:21:15.423Z,8.23
2023-05-22T05:23:42.992Z,11.10
2023-05-22T05:26:10.230Z,10.02
2023-05-22T05:28:37.823Z,9.32
2023-05-22T05:31:07.898Z,11.38
2023-05-22T05:33:47.216Z,11.20
2023-05-22T05:36:21.446Z,10.73
2023-05-22T05:38:49.079Z,11.55
2023-05-22T05:41:17.118Z,10.10
2023-05-22T05:43:46.134Z,9.27
2023-05-22T05:46:13.347Z,10.68
2023-05-22T05:48:41.855Z,9.45
2023-05-22T05:51:08.981Z,8.95
2023-05-22T05:53:41.220Z,9.07
2023-05-22T05:56:09.489Z,7.53
2023-05-22T05:58:38.084Z,7.93
2023-05-22T06:01:27.218Z,7.90
2023-05-22T06:03:56.033Z,7.32
2023-05-22T06:06:26.982Z,11.68
2023-05-22T06:09:12.828Z,14.27
2023-05-22T06:12:13.030Z,12.45
2023-05-22T06:14:44.128Z,14.77
2023-05-22T06:17:12.694Z,12.93
2023-05-22T06:19:42.403Z,21.17
2023-05-22T06:22:10.135Z,21.08
2023-05-22T06:24:39.818Z,23.50
2023-05-22T06:29:39.880Z,15.25
2023-05-22T06:32:08.838Z,16.23
2023-05-22T06:34:38.228Z,10.25
2023-05-22T06:37:06.910Z,9.68
2023-05-22T06:39:40.446Z,10.07
2023-05-22T06:44:58.233Z,7.88
2023-05-22T06:47:33.988Z,10.75
2023-05-22T06:50:01.549Z,9.40
2023-05-22T06:52:29.091Z,10.70
2023-05-22T06:55:04.468Z,8.88
2023-05-22T06:57:37.632Z,9.10
2023-05-22T07:00:09.773Z,10.48
2023-05-22T07:03:07.060Z,8.57
2023-05-22T07:05:43.618Z,8.95
2023-05-22T07:08:10.872Z,8.77
2023-05-22T07:10:38.764Z,9.13
2023-05-22T07:13:07.804Z,7.85
2023-05-22T07:15:35.785Z,9.50
2023-05-22T07:18:06.091Z,9.20
2023-05-22T07:20:33.368Z,10.35
2023-05-22T07:23:10.349Z,7.80
2023-05-22T07:25:38.820Z,7.78
2023-05-22T07:28:09.206Z,7.70
2023-05-22T07:30:45.049Z,7.30
2023-05-22T07:33:12.797Z,7.85
2023-05-22T07:35:40.460Z,8.00
2023-05-22T07:38:07.679Z,6.60
2023-05-22T07:40:35.727Z,7.13
2023-05-22T07:43:02.994Z,6.63
2023-05-22T07:45:31.773Z,6.47
2023-05-22T07:48:04.536Z,6.30
2023-05-22T07:50:35.969Z,5.50
2023-05-22T07:53:04.809Z,6.97
2023-05-22T07:55:36.064Z,6.27
2023-05-22T07:58:04.409Z,5.60
2023-05-22T08:00:37.117Z,5.35
2023-05-22T08:03:04.537Z,5.45
2023-05-22T08:05:31.873Z,6.40
2023-05-22T08:07:59.009Z,6.30
2023-05-22T08:10:28.040Z,5.90
2023-05-22T08:12:58.737Z,6.35
2023-05-22T08:15:27.468Z,6.93
2023-05-22T08:17:54.625Z,6.40
2023-05-22T08:20:21.992Z,6.68
2023-05-22T08:22:49.637Z,5.75
2023-05-22T08:25:18.462Z,6.82
2023-05-22T08:27:45.703Z,6.82
2023-05-22T08:30:12.968Z,7.28
2023-05-22T08:32:40.119Z,6.50
2023-05-22T08:35:07.943Z,7.20
2023-05-22T08:37:35.035Z,6.47
2023-05-22T08:40:02.335Z,6.10
2023-05-22T08:42:29.677Z,6.28
2023-05-22T08:44:58.062Z,5.50
2023-05-22T08:47:26.934Z,5.20
2023-05-22T08:49:55.211Z,6.22
2023-05-22T08:52:23.553Z,5.80
2023-05-22T08:54:54.617Z,5.50
2023-05-22T08:57:22.132Z,5.40
2023-05-22T08:59:50.859Z,5.45
2023-05-22T09:02:18.520Z,5.78
2023-05-22T09:04:45.556Z,5.00
2023-05-22T09:07:14.719Z,4.95
2023-05-22T09:09:42.354Z,6.13
2023-05-22T09:12:10.752Z,6.05
2023-05-22T09:14:45.036Z,5.15
2023-05-22T09:17:16.642Z,5.85
2023-05-22T09:19:47.812Z,6.32
2023-05-22T09:22:15.241Z,6.05
2023-05-22T09:24:45.243Z,6.75
2023-05-22T09:27:12.911Z,5.80
2023-05-22T09:29:53.970Z,5.28
2023-05-22T09:32:21.252Z,3.78
2023-05-22T09:34:49.202Z,3.80
2023-05-22T09:37:17.776Z,4.40
2023-05-22T09:39:47.082Z,5.20
2023-05-22T09:42:18.152Z,5.25
2023-05-22T09:44:49.639Z,5.07
2023-05-22T09:47:17.429Z,3.88
2023-05-22T09:49:46.094Z,4.97
2023-05-22T09:52:13.286Z,4.72
2023-05-22T09:54:49.774Z,4.03
2023-05-22T09:57:19.296Z,3.53
2023-05-22T09:59:54.588Z,3.88
2023-05-22T10:02:23.888Z,4.28
2023-05-22T10:04:51.891Z,4.93
2023-05-22T10:07:24.476Z,5.80
2023-05-22T10:09:57.252Z,5.30
2023-05-22T10:12:25.826Z,4.72
2023-05-22T10:14:54.768Z,4.50
2023-05-22T10:17:22.150Z,4.85
2023-05-22T10:19:50.147Z,4.68
2023-05-22T10:22:21.095Z,5.07
2023-05-22T10:24:52.964Z,4.25
2023-05-22T10:27:21.127Z,5.45
2023-05-22T10:29:56.127Z,5.05
2023-05-22T10:32:41.517Z,4.78
2023-05-22T10:35:22.057Z,4.70
2023-05-22T10:37:52.319Z,4.38
2023-05-22T10:40:43.065Z,4.28
2023-05-22T10:43:10.467Z,4.68
2023-05-22T10:45:37.523Z,5.45
2023-05-22T10:48:09.763Z,4.40
2023-05-22T10:50:37.154Z,4.87
2023-05-22T10:53:41.181Z,4.88
2023-05-22T10:58:41.648Z,5.13
2023-05-22T11:01:20.115Z,5.50
2023-05-22T11:03:56.080Z,5.78
2023-05-22T11:06:42.354Z,4.82
2023-05-22T11:09:29.080Z,4.38
2023-05-22T11:12:31.166Z,5.20
2023-05-22T11:15:07.772Z,5.22
2023-05-22T11:17:46.905Z,4.35
2023-05-22T11:20:21.326Z,3.60
2023-05-22T11:22:57.464Z,3.70
2023-05-22T11:25:25.431Z,4.28
2023-05-22T11:27:54.540Z,4.25
2023-05-22T11:30:26.801Z,4.28
2023-05-22T11:32:54.686Z,3.97
2023-05-22T11:35:23.032Z,3.80
2023-05-22T11:37:53.007Z,4.38
2023-05-22T11:40:22.275Z,3.67
2023-05-22T11:42:49.486Z,4.45
2023-05-22T11:45:18.087Z,3.65
2023-05-22T11:47:45.677Z,4.40
2023-05-22T11:50:13.497Z,3.65
2023-05-22T11:52:42.613Z,4.88
2023-05-22T11:55:11.260Z,4.63
2023-05-22T11:57:38.937Z,4.20
2023-05-22T12:00:08.893Z,3.88
2023-05-22T12:02:49.605Z,4.15
2023-05-22T12:05:16.993Z,4.10
2023-05-22T12:07:44.462Z,4.68
2023-05-22T12:10:12.703Z,4.03
2023-05-22T12:12:39.994Z,3.65
2023-05-22T12:15:08.215Z,3.80
2023-05-22T12:17:38.896Z,4.40
2023-05-22T12:20:07.442Z,4.03
2023-05-22T12:22:41.215Z,4.18
2023-05-22T12:25:15.558Z,3.97
2023-05-22T12:27:45.028Z,3.80
2023-05-22T12:30:13.710Z,3.65
2023-05-22T12:32:41.049Z,3.80
2023-05-22T12:35:16.325Z,5.13
2023-05-22T12:37:52.512Z,4.20
2023-05-22T12:40:19.834Z,3.55
2023-05-22T12:42:48.456Z,3.85
2023-05-22T12:45:17.956Z,4.30
2023-05-22T12:47:45.393Z,4.22
2023-05-22T12:50:12.626Z,3.80
2023-05-22T12:52:39.889Z,4.45
2023-05-22T12:55:07.651Z,4.38
2023-05-22T12:57:35.196Z,3.17
2023-05-22T13:00:02.464Z,4.25
2023-05-22T13:02:29.760Z,3.90
2023-05-22T13:04:56.953Z,4.35
2023-05-22T13:07:24.223Z,4.50
2023-05-22T13:09:51.876Z,4.57
2023-05-22T13:12:19.499Z,4.38
2023-05-22T13:14:46.973Z,4.70
2023-05-22T13:17:14.142Z,4.28
2023-05-22T13:19:41.370Z,4.47
2023-05-22T13:22:09.082Z,4.38
2023-05-22T13:24:36.355Z,4.65
2023-05-22T13:27:03.636Z,4.22
2023-05-22T13:29:30.846Z,4.65
2023-05-22T13:31:58.049Z,5.38
2023-05-22T13:34:25.460Z,4.88
2023-05-22T13:36:53.028Z,6.28
2023-05-22T13:39:20.224Z,5.05
2023-05-22T13:41:47.832Z,5.40
2023-05-22T13:44:15.020Z,5.88
2023-05-22T13:46:42.346Z,5.18
2023-05-22T13:49:09.609Z,5.68
2023-05-22T13:51:38.121Z,6.35
2023-05-22T13:54:05.387Z,6.03
2023-05-22T13:56:32.583Z,5.75
2023-05-22T13:59:00.165Z,5.78
2023-05-22T14:01:27.760Z,5.57
2023-05-22T14:03:54.921Z,5.60
2023-05-22T14:06:22.230Z,5.75
2023-05-22T14:08:49.393Z,6.10
2023-05-22T14:11:16.768Z,5.53
2023-05-22T14:13:43.834Z,6.15
2023-05-22T14:16:11.073Z,7.28
2023-05-22T14:18:38.228Z,5.50
2023-05-22T14:21:05.590Z,6.07
2023-05-22T14:23:32.776Z,6.68
2023-05-22T14:25:59.807Z,5.80
2023-05-22T14:28:27.056Z,6.32
2023-05-22T14:30:54.352Z,5.88
2023-05-22T14:33:21.558Z,6.03
2023-05-22T14:35:49.022Z,7.55
2023-05-22T14:38:16.224Z,6.25
2023-05-22T14:40:43.542Z,6.30
2023-05-22T14:43:10.729Z,5.70
2023-05-22T14:45:38.241Z,5.95
2023-05-22T14:48:05.976Z,6.63
2023-05-22T14:50:33.189Z,6.90
2023-05-22T14:53:00.301Z,6.38
2023-05-22T14:55:28.274Z,7.03
2023-05-22T14:57:56.115Z,6.53
2023-05-22T15:00:23.363Z,6.43
2023-05-22T15:02:50.617Z,6.07
2023-05-22T15:05:18.166Z,6.25
2023-05-22T15:07:47.197Z,6.88
2023-05-22T15:10:15.144Z,6.90
2023-05-22T15:12:42.364Z,7.00
2023-05-22T15:15:09.854Z,6.85
2023-05-22T15:17:37.163Z,7.20
2023-05-22T15:20:05.692Z,7.70
2023-05-22T15:22:32.798Z,7.57
2023-05-22T15:25:12.308Z,7.50
2023-05-22T15:27:40.084Z,7.82
2023-05-22T15:30:10.028Z,7.97
2023-05-22T15:32:37.985Z,7.40
2023-05-22T15:35:07.316Z,7.70
2023-05-22T15:37:36.575Z,7.85
2023-05-22T15:40:04.652Z,7.47
2023-05-22T15:42:32.172Z,9.13
2023-05-22T15:45:00.560Z,8.57
2023-05-22T15:47:27.734Z,6.93
2023-05-22T15:49:56.151Z,6.78
2023-05-22T15:52:24.707Z,7.55
2023-05-22T15:54:51.995Z,7.78
2023-05-22T15:57:19.208Z,7.30
2023-05-22T15:59:47.536Z,8.05
2023-05-22T16:02:14.932Z,7.32
2023-05-22T16:04:42.291Z,7.00
2023-05-22T16:07:09.479Z,6.82
2023-05-22T16:09:36.727Z,7.32
2023-05-22T16:12:04.329Z,7.47
2023-05-22T16:14:31.631Z,6.90
2023-05-22T16:16:58.745Z,6.75
2023-05-22T16:19:28.217Z,6.93
2023-05-22T16:21:55.425Z,6.63
2023-05-22T16:24:22.631Z,7.63
2023-05-22T16:26:49.704Z,7.40
2023-05-22T16:29:20.654Z,7.60
2023-05-22T16:31:48.265Z,7.10
2023-05-22T16:34:15.551Z,8.25
2023-05-22T16:36:42.763Z,7.50
2023-05-22T16:39:10.454Z,7.82
2023-05-22T16:41:37.760Z,7.38
2023-05-22T16:44:04.954Z,8.30
2023-05-22T16:46:32.253Z,8.27
2023-05-22T16:48:59.535Z,7.57
2023-05-22T16:51:26.670Z,8.98
2023-05-22T16:53:53.907Z,7.40
2023-05-22T16:56:21.284Z,7.20
2023-05-22T16:58:48.604Z,7.95
2023-05-22T17:01:16.001Z,8.23
2023-05-22T17:03:43.496Z,7.60
2023-05-22T17:06:10.761Z,8.02
2023-05-22T17:08:37.992Z,8.18
2023-05-22T17:11:05.190Z,7.35
2023-05-22T17:13:32.469Z,7.70
2023-05-22T17:15:59.567Z,6.95
2023-05-22T17:18:26.816Z,8.00
2023-05-22T17:20:57.222Z,7.40
2023-05-22T17:23:24.406Z,6.72
2023-05-22T17:25:51.564Z,7.93
2023-05-22T17:28:19.500Z,7.20
2023-05-22T17:30:47.317Z,7.53
2023-05-22T17:33:14.768Z,7.35
2023-05-22T17:35:42.390Z,8.18
2023-05-22T17:38:09.490Z,8.80
2023-05-22T17:40:44.772Z,9.13
2023-05-22T17:43:13.877Z,9.48
2023-05-22T17:45:41.976Z,9.50
2023-05-22T17:48:09.316Z,8.30
2023-05-22T17:50:36.513Z,8.43
2023-05-22T17:53:03.705Z,8.68
2023-05-22T17:55:33.055Z,7.78
2023-05-22T17:58:00.403Z,8.52
2023-05-22T18:00:27.592Z,8.77
2023-05-22T18:02:57.012Z,8.77
2023-05-22T18:05:24.299Z,8.38
2023-05-22T18:07:51.398Z,8.48
2023-05-22T18:10:20.612Z,8.60
2023-05-22T18:12:48.514Z,8.13
2023-05-22T18:15:15.713Z,8.32
2023-05-22T18:17:43.176Z,7.57
2023-05-22T18:20:16.758Z,7.20
2023-05-22T18:22:43.893Z,8.23
2023-05-22T18:25:11.130Z,7.60
2023-05-22T18:27:38.434Z,7.43
2023-05-22T18:30:07.876Z,7.88
2023-05-22T18:32:35.540Z,7.97
2023-05-22T18:35:03.936Z,8.18
2023-05-22T18:37:32.445Z,7.65
2023-05-22T18:39:59.905Z,7.15
2023-05-22T18:42:27.304Z,7.07
2023-05-22T18:44:54.634Z,7.78
2023-05-22T18:47:22.071Z,8.00
2023-05-22T18:49:49.176Z,6.80
2023-05-22T18:52:16.432Z,6.88
2023-05-22T18:54:43.868Z,7.97
2023-05-22T18:57:11.354Z,8.10
2023-05-22T18:59:38.740Z,7.28
2023-05-22T19:02:07.191Z,7.53
2023-05-22T19:04:34.585Z,7.47
2023-05-22T19:07:01.924Z,6.93
2023-05-22T19:09:29.394Z,7.13
2023-05-22T19:11:56.948Z,6.18
2023-05-22T19:14:24.359Z,6.63
2023-05-22T19:16:52.422Z,7.00
2023-05-22T19:19:20.842Z,7.32
2023-05-22T19:21:48.698Z,6.53
2023-05-22T19:24:16.753Z,7.88
2023-05-22T19:26:44.758Z,9.55
2023-05-22T19:29:12.812Z,8.07
2023-05-22T19:31:40.085Z,7.18
2023-05-22T19:34:07.525Z,7.75
2023-05-22T19:36:35.875Z,7.45
2023-05-22T19:39:04.294Z,7.82
2023-05-22T19:41:33.002Z,8.25
2023-05-22T19:44:01.274Z,10.40
2023-05-22T19:46:29.316Z,10.63
2023-05-22T19:48:57.444Z,9.30
2023-05-22T19:51:24.866Z,9.07
2023-05-22T19:53:52.159Z,8.38
2023-05-22T19:56:19.522Z,8.45
2023-05-22T19:58:47.134Z,9.65
2023-05-22T20:01:14.801Z,10.25
2023-05-22T20:03:42.925Z,9.15
2023-05-22T20:06:10.809Z,9.30
2023-05-22T20:08:37.997Z,9.30
2023-05-22T20:11:05.234Z,10.27
2023-05-22T20:13:32.453Z,8.75
2023-05-22T20:16:04.201Z,9.27
2023-05-22T20:18:34.000Z,10.88
2023-05-22T20:21:01.544Z,10.50
2023-05-22T20:23:28.827Z,10.55
2023-05-22T20:25:56.067Z,16.77
2023-05-22T20:28:23.167Z,18.30
2023-05-22T20:30:51.348Z,17.58
2023-05-22T20:33:18.796Z,15.52
2023-05-22T20:35:50.232Z,12.73
2023-05-22T20:38:19.197Z,13.40
2023-05-22T20:40:49.480Z,13.55
2023-05-22T20:43:18.684Z,10.85
2023-05-22T20:45:46.850Z,11.07
2023-05-22T20:48:14.487Z,12.20
2023-05-22T20:50:42.423Z,12.05
2023-05-22T20:53:09.689Z,12.65
2023-05-22T20:55:37.331Z,12.68
2023-05-22T20:58:04.485Z,11.98
2023-05-22T21:00:31.681Z,13.25
2023-05-22T21:03:01.337Z,13.70
2023-05-22T21:05:28.714Z,13.13
2023-05-22T21:07:55.917Z,12.07
2023-05-22T21:10:23.040Z,11.35
2023-05-22T21:12:50.182Z,10.25
2023-05-22T21:15:17.351Z,9.77
2023-05-22T21:17:44.660Z,9.32
2023-05-22T21:20:11.852Z,8.65
2023-05-22T21:22:38.956Z,8.05
2023-05-22T21:25:06.778Z,8.57
2023-05-22T21:27:33.907Z,7.65
2023-05-22T21:30:01.239Z,7.90
2023-05-22T21:32:28.391Z,6.95
2023-05-22T21:34:55.640Z,8.05
2023-05-22T21:37:22.782Z,7.25
2023-05-22T21:39:50.293Z,7.15
2023-05-22T21:42:17.923Z,7.68
2023-05-22T21:44:45.069Z,8.10
2023-05-22T21:47:12.390Z,7.57
2023-05-22T21:49:39.848Z,7.45
2023-05-22T21:52:07.300Z,7.50
2023-05-22T21:54:34.423Z,7.53
2023-05-22T21:57:01.515Z,7.85
2023-05-22T21:59:28.781Z,7.38
2023-05-22T22:01:56.019Z,8.00
2023-05-22T22:04:23.249Z,8.68
2023-05-22T22:06:50.473Z,7.38
2023-05-22T22:09:17.689Z,7.72
2023-05-22T22:11:45.948Z,8.50
2023-05-22T22:14:13.143Z,9.02
2023-05-22T22:16:40.972Z,9.57
2023-05-22T22:19:08.163Z,9.30
2023-05-22T22:21:36.648Z,8.77
2023-05-22T22:24:04.087Z,9.85
2023-05-22T22:26:32.270Z,9.57
2023-05-22T22:28:59.491Z,9.32
2023-05-22T22:31:26.678Z,9.25
2023-05-22T22:33:54.002Z,8.65
2023-05-22T22:36:21.420Z,8.88
2023-05-22T22:38:48.570Z,8.57
2023-05-22T22:41:15.606Z,7.97
2023-05-22T22:43:42.688Z,7.22
2023-05-22T22:46:09.911Z,7.65
2023-05-22T22:48:37.115Z,7.97
2023-05-22T22:51:05.095Z,8.20
2023-05-22T22:53:32.282Z,9.30
2023-05-22T22:55:59.667Z,8.13
2023-05-22T22:58:26.866Z,9.25
2023-05-22T23:00:54.361Z,9.18
2023-05-22T23:03:21.885Z,8.93
2023-05-22T23:05:49.260Z,9.77
2023-05-22T23:08:16.529Z,9.45
2023-05-22T23:10:43.686Z,10.10
2023-05-22T23:13:10.952Z,8.32
2023-05-22T23:15:38.346Z,8.75
2023-05-22T23:18:06.037Z,9.25
2023-05-22T23:20:33.335Z,8.52
2023-05-22T23:23:00.439Z,7.65
2023-05-22T23:25:27.633Z,8.73
2023-05-22T23:27:54.712Z,9.13
2023-05-22T23:30:21.819Z,10.40
2023-05-22T23:32:49.025Z,9.30
2023-05-22T23:35:16.147Z,10.77
2023-05-22T23:37:43.437Z,11.13
2023-05-22T23:40:10.894Z,11.07
2023-05-22T23:42:40.049Z,11.55
2023-05-22T23:45:07.704Z,11.02
2023-05-22T23:47:34.933Z,12.25
2023-05-22T23:50:02.206Z,13.80
2023-05-22T23:52:29.457Z,14.38
2023-05-22T23:54:56.943Z,14.63
2023-05-22T23:57:24.148Z,16.40
2023-05-22T23:59:51.358Z,18.05
